Metar Cercanos

 

LEPA - Palma De Mallorc, Spain
Distance from station: ONO 38km
Actualización: Fri, 16-Apr-2021 1:30am CEST
Few Clouds
Few Clouds
 Viento del NE
Viento: NE 4 km/h
Temperatura: 10°C
Rocío: 8°C
Humedad: 88%
Barómetro: 1016 hPa
Clouds: Few Clouds
Visibility: 10 km
Cloud details: Few Clouds 549 m
2021/04/15 23:30 LEPA 152330Z 05002KT 9999 FEW018 10/08 Q1016 NOSIG
LEMH - Mahon/Menorca Is, Spain
Distance from station: ENE 105km
Actualización: Fri, 16-Apr-2021 1:30am CEST
Parcialmente nuboso
Parcialmente nuboso
 Viento del NE
Viento: NE 13 km/h
Temperatura: 12°C
Rocío: 8°C
Humedad: 77%
Barómetro: 1015 hPa
Clouds: Parcialmente nuboso
Visibility: 10 km
Cloud details: Few Clouds 549 m
Parcialmente nuboso 640 m
2021/04/15 23:30 LEMH 152330Z AUTO 05007KT 9999 FEW018/// SCT021/// 12/08 Q1015
 
LEIB - Ibiza/Es Codola, Spain
Distance from station: OSO 165km
Actualización: Fri, 16-Apr-2021 1:30am CEST
Few Clouds
Few Clouds
 Viento del NNE
Viento: NNE 13 km/h
Temperatura: 12°C
Rocío: 9°C
Humedad: 82%
Barómetro: 1016 hPa
Clouds: Few Clouds
Visibility: 10 km
Cloud details: Few Clouds 671 m
2021/04/15 23:30 LEIB 152330Z 03007KT 9999 FEW022 12/09 Q1016 NOSIG
LEBL - Barcelona Airpor, Spain
Distance from station: NNO 225km
Actualización: Fri, 16-Apr-2021 1:30am CEST
Few Clouds
Few Clouds
 Viento del NNO
Viento: NNO 7 km/h
Temperatura: 12°C
Rocío: 3°C
Humedad: 54%
Barómetro: 1017 hPa
Clouds: Few Clouds
Visibility: 10 km
Cloud details: Few Clouds 1676 m
2021/04/15 23:30 LEBL 152330Z 33004KT 9999 FEW055 12/03 Q1017 NOSIG
 
LEVC - Valencia (civ/Mi, Spain
Distance from station: NO 188km
Actualización: Fri, 16-Apr-2021 1:30am CEST
Despejado
Despejado
 Viento del NO
Viento: NO 7 km/h
Temperatura: 9°C
Sensación frio: 8°C
Rocío: 8°C
Humedad: 94%
Barómetro: 1018 hPa
Resumen: Despejado
Visibility: greater than 10 km
2021/04/15 23:30 LEVC 152330Z 32004KT CAVOK 09/08 Q1018 NOSIG
LEGE - Gerona/Costa Bra, Spain
Distance from station: N 276km
Actualización: Fri, 16-Apr-2021 1:00am CEST
Cubierto
Cubierto
 Viento del varies
Viento: varies 2 km/h
Temperatura: 9°C
Rocío: 3°C
Humedad: 66%
Barómetro: 1017 hPa
Clouds: Cubierto
Visibility: 10 km
Cloud details: Muy nuboso 2286 m
Cubierto 2743 m
2021/04/15 23:00 LEGE 152300Z VRB01KT 9999 BKN075 OVC090 09/03 Q1017
 
LEAL - Alicante/El Alte, Spain
Distance from station: OSO 344km
Actualización: Fri, 16-Apr-2021 1:30am CEST
Parcialmente nuboso
Parcialmente nuboso
 Viento del N
Viento: N 9 km/h
Temperatura: 11°C
Rocío: 9°C
Humedad: 88%
Barómetro: 1016 hPa
Clouds: Parcialmente nuboso
Visibility: 10 km
Cloud details: Few Clouds 671 m
Parcialmente nuboso 1829 m
2021/04/15 23:30 LEAL 152330Z 36005KT 9999 FEW022 SCT060 11/09 Q1016 NOSIG
LEAM - Almeria Airport, Spain
Distance from station: SSO 56km
Actualización: Fri, 16-Apr-2021 1:30am CEST
Muy nuboso
Muy nuboso
 Viento del NNE
Viento: NNE 13 km/h
Temperatura: 13°C
Rocío: 9°C
Humedad: 77%
Barómetro: 1015 hPa
Clouds: Muy nuboso
Visibility: 10 km
Cloud details: Muy nuboso 2073 m
Muy nuboso 2408 m
2021/04/15 23:30 LEAM 152330Z AUTO 03007KT 360V070 9999 BKN068 BKN079 13/09 Q1015
 
LEZG - Zaragoza (mil/Ci, Spain
Distance from station: NO 431km
Actualización: Fri, 16-Apr-2021 1:30am CEST
Despejado
Despejado
 Viento del ONO
Viento: ONO 28 km/h
Temperatura: 9°C
Sensación frio: 6°C
Rocío: -2°C
Humedad: 46%
Barómetro: 1018 hPa
Resumen: Despejado
Visibility: greater than 10 km
2021/04/15 23:30 LEZG 152330Z 30015KT CAVOK 09/M02 Q1018
LEMD - Madrid/Barajas, Spain
Distance from station: ONO 234km
Actualización: Fri, 16-Apr-2021 1:30am CEST
Muy nuboso
Muy nuboso
 Viento del S
Viento: S 7 km/h
Temperatura: 11°C
Rocío: 7°C
Humedad: 77%
Barómetro: 1017 hPa
Clouds: Muy nuboso
Visibility: 10 km
Cloud details: Muy nuboso 1067 m
Muy nuboso 1737 m
2021/04/15 23:30 LEMD 152330Z 17004KT 9999 BKN035 BKN057 11/07 Q1017 NOSIG
 
LEGR - Granada Airport, Spain
Distance from station: OSO 62km
Actualización: Fri, 16-Apr-2021 1:30am CEST
Cubierto
Cubierto
 Viento del calm
Viento: Calma
Temperatura: 11°C
Rocío: 11°C
Humedad: 100%
Barómetro: 1015 hPa
Clouds: Cubierto
Visibility: 10 km
Cloud details: Muy nuboso 701 m
Cubierto 1250 m
2021/04/15 23:30 LEGR 152330Z AUTO 00000KT 9999 BKN023 OVC041 11/11 Q1015
LEMG - Malaga (civ/Mil), Spain
Distance from station: OSO 227km
Actualización: Fri, 16-Apr-2021 1:30am CEST
Lluvia débil, Muy nuboso
Lluvia débil, Muy nuboso
 Viento del SE
Viento: SE 11 km/h
Temperatura: 14°C
Rocío: 13°C
Humedad: 94%
Barómetro: 1016 hPa
Resumen: Lluvia débil
Clouds: Muy nuboso
Visibility: 5 km
Cloud details: Few Clouds 305 m
Parcialmente nuboso 518 m
Muy nuboso 792 m
2021/04/15 23:30 LEMG 152330Z 14006KT 110V170 4500 -RA FEW010 SCT017 BKN026 14/13 Q1016 NOSIG
 
LEZL - Sevilla (civ/Mil, Spain
Distance from station: S 318km
Actualización: Fri, 16-Apr-2021 1:30am CEST
Muy nuboso
Muy nuboso
 Viento del NNE
Viento: NNE 9 km/h
Temperatura: 15°C
Rocío: 14°C
Humedad: 94%
Barómetro: 1015 hPa
Clouds: Muy nuboso
Visibility: 8 km
Cloud details: Muy nuboso 427 m
Muy nuboso 610 m
2021/04/15 23:30 LEZL 152330Z AUTO 03005KT 8000 BKN014 BKN020 15/14 Q1015
LEVT - Vitoria, Spain
Distance from station: NO 226km
Actualización: Fri, 16-Apr-2021 1:30am CEST
Despejado
Despejado
 Viento del O
Viento: O 6 km/h
Temperatura: 2°C
Rocío: -1°C
Humedad: 81%
Barómetro: 1021 hPa
Resumen: Despejado
Visibility: greater than 10 km
2021/04/15 23:30 LEVT 152330Z 26003KT CAVOK 02/M01 Q1021
 
LEBB - Bilbao/Sondica, Spain
Distance from station: NNO 235km
Actualización: Fri, 16-Apr-2021 1:30am CEST
Despejado
Despejado
 Viento del E
Viento: E 7 km/h
Temperatura: 4°C
Sensación frio: 2°C
Rocío: 1°C
Humedad: 81%
Barómetro: 1023 hPa
Resumen: Despejado
Visibility: greater than 10 km
2021/04/15 23:30 LEBB 152330Z AUTO 09004KT CAVOK 04/01 Q1023
LESO - San Sebastian/Fu, Spain
Distance from station: N 231km
Actualización: Fri, 16-Apr-2021 1:30am CEST
Despejado
Despejado
 Viento del varies
Viento: varies 4 km/h
Temperatura: 8°C
Rocío: 3°C
Humedad: 71%
Barómetro: 1021 hPa
Resumen: Despejado
Visibility: greater than 10 km
2021/04/15 23:30 LESO 152330Z AUTO VRB02KT CAVOK 08/03 Q1021
 
LEVD - Valladolid(Mil/C, Spain
Distance from station: ONO 239km
Actualización: Fri, 16-Apr-2021 1:30am CEST
Despejado
Despejado
 Viento del NE
Viento: NE 28 km/h
Temperatura: 4°C
Sensación frio: -1°C
Rocío: -6°C
Humedad: 48%
Barómetro: 1017 hPa
Resumen: Despejado
Visibility: greater than 10 km
2021/04/15 23:30 LEVD 152330Z AUTO 05015KT CAVOK 04/M06 Q1017
LESA - Salamanca (civ/M, Spain
Distance from station: ONO 349km
Actualización: Fri, 16-Apr-2021 1:30am CEST
Despejado
Despejado
 Viento del NE
Viento: NE 9 km/h
Temperatura: 6°C
Sensación frio: 4°C
Rocío: -1°C
Humedad: 61%
Barómetro: 1017 hPa
Resumen: Despejado
Visibility: greater than 10 km
2021/04/15 23:30 LESA 152330Z AUTO 05005KT 010V100 CAVOK 06/M01 Q1017
 
LEXJ - Santander/Paraya, Spain
Distance from station: NNO 247km
Actualización: Fri, 16-Apr-2021 1:30am CEST
Few Clouds
Few Clouds
 Viento del SO
Viento: SO 7 km/h
Temperatura: 7°C
Sensación frio: 6°C
Rocío: 2°C
Humedad: 71%
Barómetro: 1023 hPa
Clouds: Few Clouds
Visibility: 10 km
Cloud details: Few Clouds 1494 m
2021/04/15 23:30 LEXJ 152330Z AUTO 23004KT 180V280 9999 FEW049 07/02 Q1023
LEAS - Asturias/Aviles, Spain
Distance from station: NO 214km
Actualización: Fri, 16-Apr-2021 1:30am CEST
Despejado
Despejado
 Viento del ESE
Viento: ESE 13 km/h
Temperatura: 6°C
Sensación frio: 3°C
Rocío: 2°C
Humedad: 76%
Barómetro: 1022 hPa
Resumen: Despejado
Visibility: greater than 10 km
2021/04/15 23:30 LEAS 152330Z AUTO 11007KT 080V150 CAVOK 06/02 Q1022
 
LECO - La Coruna/Alvedr, Spain
Distance from station: ONO 222km
Actualización: Fri, 16-Apr-2021 1:30am CEST
Despejado
Despejado
 Viento del NNE
Viento: NNE 7 km/h
Temperatura: 8°C
Sensación frio: 7°C
Rocío: 2°C
Humedad: 66%
Barómetro: 1019 hPa
Resumen: Despejado
Visibility: greater than 10 km
2021/04/15 23:30 LECO 152330Z AUTO 02004KT 330V100 CAVOK 08/02 Q1019
LEVX - Vigo/Peinador, Spain
Distance from station: O 214km
Actualización: Fri, 16-Apr-2021 1:30am CEST
Despejado
Despejado
 Viento del varies
Viento: varies 4 km/h
Temperatura: 11°C
Rocío: 7°C
Humedad: 77%
Barómetro: 1015 hPa
Resumen: Despejado
Visibility: greater than 10 km
2021/04/15 23:30 LEVX 152330Z VRB02KT CAVOK 11/07 Q1015 NOSIG